createdAt,value
2024-04-24T00:02:21.239Z,5.72
2024-04-24T00:04:47.787Z,5.95
2024-04-24T00:07:14.250Z,5.43
2024-04-24T00:09:40.808Z,5.25
2024-04-24T00:12:07.479Z,5.63
2024-04-24T00:14:33.961Z,6.25
2024-04-24T00:17:00.472Z,5.53
2024-04-24T00:19:27.027Z,5.15
2024-04-24T00:21:53.570Z,6.22
2024-04-24T00:24:20.133Z,5.40
2024-04-24T00:26:46.575Z,5.40
2024-04-24T00:29:13.083Z,6.55
2024-04-24T00:31:39.602Z,5.38
2024-04-24T00:34:06.071Z,5.32
2024-04-24T00:36:32.565Z,5.75
2024-04-24T00:38:58.984Z,5.53
2024-04-24T00:41:25.542Z,6.50
2024-04-24T00:43:52.107Z,5.78
2024-04-24T00:46:20.157Z,5.55
2024-04-24T00:48:46.809Z,5.95
2024-04-24T00:51:14.538Z,5.45
2024-04-24T00:53:41.129Z,6.22
2024-04-24T00:56:07.886Z,5.80
2024-04-24T00:58:36.856Z,6.00
2024-04-24T01:01:04.497Z,6.60
2024-04-24T01:03:32.427Z,4.95
2024-04-24T01:08:25.390Z,4.65
2024-04-24T01:11:01.073Z,5.57
2024-04-24T01:13:27.633Z,5.10
2024-04-24T01:16:03.331Z,5.22
2024-04-24T01:18:31.197Z,6.15
2024-04-24T01:23:37.018Z,4.82
2024-04-24T01:26:08.638Z,4.88
2024-04-24T01:28:35.338Z,5.70
2024-04-24T01:31:01.872Z,5.07
2024-04-24T01:33:28.400Z,5.00
2024-04-24T01:35:54.899Z,5.65
2024-04-24T01:38:21.465Z,5.22
2024-04-24T01:40:48.091Z,5.40
2024-04-24T01:43:14.615Z,5.38
2024-04-24T01:45:41.658Z,5.40
2024-04-24T01:48:08.336Z,4.85
2024-04-24T01:50:34.997Z,4.78
2024-04-24T01:53:01.516Z,5.22
2024-04-24T01:55:27.981Z,6.40
2024-04-24T01:57:54.459Z,5.93
2024-04-24T02:00:20.984Z,6.13
2024-04-24T02:02:47.486Z,5.55
2024-04-24T02:05:14.148Z,5.53
2024-04-24T02:07:40.658Z,5.72
2024-04-24T02:10:07.220Z,5.38
2024-04-24T02:12:33.761Z,5.60
2024-04-24T02:15:00.337Z,6.10
2024-04-24T02:17:28.228Z,5.22
2024-04-24T02:22:21.223Z,5.68
2024-04-24T02:24:47.712Z,5.60
2024-04-24T02:27:14.150Z,5.97
2024-04-24T02:29:48.394Z,6.20
2024-04-24T02:32:21.352Z,5.85
2024-04-24T02:34:47.942Z,5.97
2024-04-24T02:37:14.464Z,5.53
2024-04-24T02:39:40.916Z,5.93
2024-04-24T02:42:07.654Z,5.38
2024-04-24T02:44:34.176Z,6.00
2024-04-24T02:47:00.643Z,5.68
2024-04-24T02:49:27.156Z,5.93
2024-04-24T02:51:53.683Z,5.75
2024-04-24T02:54:20.204Z,5.70
2024-04-24T02:56:48.671Z,5.35
2024-04-24T02:59:16.423Z,5.28
2024-04-24T03:01:42.903Z,6.47
2024-04-24T03:04:09.466Z,5.45
2024-04-24T03:06:41.916Z,5.57
2024-04-24T03:09:08.393Z,5.60
2024-04-24T03:11:34.934Z,5.30
2024-04-24T03:14:01.701Z,5.60
2024-04-24T03:16:31.698Z,5.32
2024-04-24T03:18:58.199Z,5.18
2024-04-24T03:21:25.065Z,5.32
2024-04-24T03:23:52.107Z,4.68
2024-04-24T03:26:18.694Z,5.15
2024-04-24T03:28:45.228Z,5.47
2024-04-24T03:31:11.680Z,4.65
2024-04-24T03:33:38.225Z,5.15
2024-04-24T03:36:04.992Z,4.85
2024-04-24T03:38:31.558Z,5.75
2024-04-24T03:40:58.067Z,4.72
2024-04-24T03:43:24.541Z,5.55
2024-04-24T03:45:51.016Z,5.15
2024-04-24T03:48:17.592Z,4.78
2024-04-24T03:50:44.197Z,4.90
2024-04-24T03:53:10.692Z,5.13
2024-04-24T03:55:37.197Z,5.22
2024-04-24T03:58:03.800Z,5.18
2024-04-24T04:00:30.340Z,4.85
2024-04-24T04:02:57.024Z,5.47
2024-04-24T04:05:23.597Z,5.65
2024-04-24T04:07:56.955Z,5.15
2024-04-24T04:10:23.419Z,5.20
2024-04-24T04:12:49.924Z,5.45
2024-04-24T04:15:16.407Z,5.45
2024-04-24T04:17:42.987Z,5.10
2024-04-24T04:20:09.866Z,5.63
2024-04-24T04:22:38.480Z,5.10
2024-04-24T04:25:06.744Z,4.72
2024-04-24T04:27:33.336Z,4.70
2024-04-24T04:30:00.258Z,4.90
2024-04-24T04:32:27.332Z,4.95
2024-04-24T04:34:54.243Z,4.80
2024-04-24T04:37:20.733Z,4.63
2024-04-24T04:39:47.246Z,4.85
2024-04-24T04:42:13.865Z,5.22
2024-04-24T04:44:40.419Z,4.60
2024-04-24T04:47:07.049Z,4.30
2024-04-24T04:49:33.640Z,4.85
2024-04-24T04:52:00.090Z,4.60
2024-04-24T04:54:26.536Z,4.65
2024-04-24T04:56:53.038Z,4.85
2024-04-24T04:59:19.640Z,4.75
2024-04-24T05:01:46.124Z,5.00
2024-04-24T05:04:12.727Z,5.57
2024-04-24T05:06:39.289Z,4.82
2024-04-24T05:09:05.873Z,4.38
2024-04-24T05:11:32.354Z,4.85
2024-04-24T05:13:58.874Z,5.03
2024-04-24T05:16:25.360Z,4.45
2024-04-24T05:18:51.954Z,5.15
2024-04-24T05:21:18.510Z,5.55
2024-04-24T05:23:44.945Z,5.20
2024-04-24T05:26:11.535Z,5.20
2024-04-24T05:28:38.014Z,4.93
2024-04-24T05:31:04.850Z,5.32
2024-04-24T05:33:31.400Z,5.10
2024-04-24T05:35:57.992Z,5.10
2024-04-24T05:38:24.545Z,6.03
2024-04-24T05:40:51.087Z,5.88
2024-04-24T05:43:17.579Z,6.60
2024-04-24T05:45:44.020Z,6.00
2024-04-24T05:48:10.677Z,6.78
2024-04-24T05:50:37.171Z,4.72
2024-04-24T05:53:03.881Z,5.40
2024-04-24T05:55:30.347Z,6.22
2024-04-24T05:57:56.779Z,5.93
2024-04-24T06:00:23.236Z,5.90
2024-04-24T06:02:49.748Z,5.95
2024-04-24T06:05:16.340Z,6.07
2024-04-24T06:07:42.826Z,5.60
2024-04-24T06:10:09.408Z,5.68
2024-04-24T06:12:35.872Z,5.78
2024-04-24T06:15:02.402Z,5.78
2024-04-24T06:17:29.009Z,7.20
2024-04-24T06:19:55.569Z,6.43
2024-04-24T06:22:22.036Z,6.78
2024-04-24T06:24:48.506Z,6.13
2024-04-24T06:27:14.989Z,6.32
2024-04-24T06:29:41.878Z,6.38
2024-04-24T06:32:08.447Z,6.15
2024-04-24T06:34:34.916Z,5.88
2024-04-24T06:37:01.367Z,5.93
2024-04-24T06:39:27.827Z,6.82
2024-04-24T06:41:54.343Z,5.82
2024-04-24T06:44:20.898Z,7.00
2024-04-24T06:46:47.453Z,5.55
2024-04-24T06:49:13.981Z,5.72
2024-04-24T06:51:40.477Z,5.93
2024-04-24T06:54:06.904Z,5.25
2024-04-24T06:56:34.014Z,6.82
2024-04-24T06:59:00.614Z,7.00
2024-04-24T07:01:27.191Z,7.45
2024-04-24T07:03:53.705Z,6.05
2024-04-24T07:06:20.246Z,5.93
2024-04-24T07:08:46.701Z,5.50
2024-04-24T07:11:14.308Z,6.10
2024-04-24T07:13:40.836Z,5.68
2024-04-24T07:16:07.322Z,6.80
2024-04-24T07:18:34.068Z,5.32
2024-04-24T07:21:00.606Z,5.60
2024-04-24T07:23:27.182Z,5.78
2024-04-24T07:25:53.744Z,6.25
2024-04-24T07:28:20.266Z,6.35
2024-04-24T07:30:46.745Z,6.05
2024-04-24T07:33:13.305Z,5.50
2024-04-24T07:35:39.936Z,6.35
2024-04-24T07:38:06.474Z,6.10
2024-04-24T07:40:33.066Z,5.70
2024-04-24T07:42:59.615Z,6.53
2024-04-24T07:45:26.081Z,5.75
2024-04-24T07:47:52.651Z,7.18
2024-04-24T07:50:19.311Z,6.15
2024-04-24T07:52:45.781Z,6.93
2024-04-24T07:55:12.234Z,7.22
2024-04-24T07:57:38.737Z,6.82
2024-04-24T08:00:05.935Z,7.35
2024-04-24T08:02:32.474Z,8.07
2024-04-24T08:04:58.998Z,8.55
2024-04-24T08:07:25.530Z,7.78
2024-04-24T08:09:51.986Z,6.97
2024-04-24T08:12:18.559Z,6.80
2024-04-24T08:14:45.041Z,6.82
2024-04-24T08:17:11.598Z,6.88
2024-04-24T08:19:38.151Z,6.40
2024-04-24T08:22:04.708Z,6.80
2024-04-24T08:24:31.198Z,7.25
2024-04-24T08:26:57.724Z,6.40
2024-04-24T08:29:25.342Z,6.30
2024-04-24T08:31:52.694Z,5.88
2024-04-24T08:34:19.295Z,6.55
2024-04-24T08:36:45.929Z,6.38
2024-04-24T08:39:12.525Z,6.88
2024-04-24T08:41:39.194Z,5.45
2024-04-24T08:44:05.981Z,6.07
2024-04-24T08:46:33.892Z,5.15
2024-04-24T08:49:03.978Z,5.90
2024-04-24T08:51:31.380Z,6.15
2024-04-24T08:54:01.042Z,6.00
2024-04-24T08:56:33.275Z,6.15
2024-04-24T08:59:04.605Z,8.20
2024-04-24T09:01:36.714Z,7.28
2024-04-24T09:04:06.488Z,7.07
2024-04-24T09:06:38.137Z,7.15
2024-04-24T09:09:05.489Z,6.50
2024-04-24T09:11:32.496Z,6.97
2024-04-24T09:14:00.358Z,7.80
2024-04-24T09:16:27.316Z,8.27
2024-04-24T09:19:00.806Z,7.47
2024-04-24T09:21:30.167Z,7.00
2024-04-24T09:23:56.963Z,6.85
2024-04-24T09:26:24.273Z,7.55
2024-04-24T09:28:51.006Z,6.88
2024-04-24T09:31:21.490Z,7.60
2024-04-24T09:33:49.548Z,7.75
2024-04-24T09:36:16.140Z,7.07
2024-04-24T09:38:42.792Z,6.75
2024-04-24T09:41:11.019Z,7.10
2024-04-24T09:43:37.684Z,6.57
2024-04-24T09:46:04.766Z,7.53
2024-04-24T09:48:31.402Z,6.82
2024-04-24T09:50:57.941Z,6.57
2024-04-24T09:53:24.394Z,7.10
2024-04-24T09:56:05.643Z,7.60
2024-04-24T09:58:36.009Z,8.48
2024-04-24T10:01:04.097Z,6.22
2024-04-24T10:03:35.447Z,8.00
2024-04-24T10:06:03.706Z,6.70
2024-04-24T10:08:32.393Z,7.75
2024-04-24T10:11:01.962Z,7.18
2024-04-24T10:13:33.349Z,7.97
2024-04-24T10:16:00.796Z,7.20
2024-04-24T10:18:28.349Z,7.18
2024-04-24T10:23:27.985Z,6.85
2024-04-24T10:25:56.357Z,9.45
2024-04-24T10:28:23.439Z,7.93
2024-04-24T10:30:50.636Z,8.38
2024-04-24T10:33:18.958Z,7.63
2024-04-24T10:35:45.745Z,6.70
2024-04-24T10:38:15.372Z,8.23
2024-04-24T10:40:46.474Z,6.88
2024-04-24T10:43:15.198Z,7.80
2024-04-24T10:45:42.977Z,7.75
2024-04-24T10:48:10.621Z,7.47
2024-04-24T10:50:38.931Z,8.25
2024-04-24T10:53:06.573Z,7.80
2024-04-24T10:57:59.685Z,8.25
2024-04-24T11:00:30.976Z,8.43
2024-04-24T11:03:01.830Z,7.63
2024-04-24T11:05:33.262Z,8.43
2024-04-24T11:08:04.245Z,8.95
2024-04-24T11:10:32.652Z,7.60
2024-04-24T11:12:59.975Z,9.63
2024-04-24T11:15:28.162Z,8.57
2024-04-24T11:17:55.259Z,8.18
2024-04-24T11:20:23.969Z,8.35
2024-04-24T11:22:50.540Z,7.90
2024-04-24T11:25:17.902Z,9.75
2024-04-24T11:27:45.699Z,9.40
2024-04-24T11:30:17.515Z,8.90
2024-04-24T11:32:46.680Z,9.15
2024-04-24T11:35:14.435Z,8.43
2024-04-24T11:37:42.732Z,8.88
2024-04-24T11:40:12.512Z,8.00
2024-04-24T11:42:43.000Z,8.00
2024-04-24T11:45:09.597Z,7.32
2024-04-24T11:47:36.235Z,9.23
2024-04-24T11:50:02.973Z,9.10
2024-04-24T11:52:37.536Z,9.68
2024-04-24T11:55:04.535Z,8.68
2024-04-24T11:57:38.060Z,10.18
2024-04-24T12:00:06.272Z,9.30
2024-04-24T12:02:34.561Z,8.32
2024-04-24T12:05:05.640Z,7.78
2024-04-24T12:07:33.247Z,8.18
2024-04-24T12:12:26.902Z,6.07
2024-04-24T12:14:56.928Z,8.93
2024-04-24T12:17:23.719Z,5.75
2024-04-24T12:19:50.289Z,7.88
2024-04-24T12:22:16.825Z,7.90
2024-04-24T12:24:43.318Z,5.93
2024-04-24T12:27:09.990Z,6.53
2024-04-24T12:29:36.582Z,5.60
2024-04-24T12:32:04.214Z,7.05
2024-04-24T12:34:30.751Z,7.38
2024-04-24T12:36:57.222Z,6.57
2024-04-24T12:39:23.701Z,9.70
2024-04-24T12:41:50.303Z,5.93
2024-04-24T12:44:16.781Z,5.85
2024-04-24T12:46:43.337Z,6.18
2024-04-24T12:49:10.124Z,5.93
2024-04-24T12:51:36.638Z,5.45
2024-04-24T12:54:03.296Z,5.47
2024-04-24T12:56:29.824Z,4.70
2024-04-24T12:58:56.493Z,5.30
2024-04-24T13:01:23.293Z,4.43
2024-04-24T13:03:50.089Z,4.30
2024-04-24T13:06:19.676Z,3.67
2024-04-24T13:08:47.971Z,4.00
2024-04-24T13:11:14.559Z,3.15
2024-04-24T13:13:41.080Z,3.35
2024-04-24T13:16:08.143Z,3.05
2024-04-24T13:18:34.731Z,3.10
2024-04-24T13:21:01.383Z,3.60
2024-04-24T13:23:27.956Z,3.55
2024-04-24T13:25:54.547Z,3.20
2024-04-24T13:28:21.096Z,3.22
2024-04-24T13:30:47.556Z,3.25
2024-04-24T13:33:14.069Z,3.45
2024-04-24T13:35:40.615Z,3.55
2024-04-24T13:38:07.122Z,3.70
2024-04-24T13:40:33.713Z,4.13
2024-04-24T13:43:00.198Z,4.63
2024-04-24T13:45:26.708Z,4.70
2024-04-24T13:47:53.339Z,5.95
2024-04-24T13:50:19.937Z,5.15
2024-04-24T13:52:46.376Z,5.40
2024-04-24T13:55:12.963Z,4.95
2024-04-24T13:57:39.444Z,4.57
2024-04-24T14:00:06.552Z,3.88
2024-04-24T14:02:33.244Z,3.67
2024-04-24T14:04:59.909Z,4.30
2024-04-24T14:07:26.476Z,3.95
2024-04-24T14:09:52.912Z,4.65
2024-04-24T14:12:19.420Z,3.95
2024-04-24T14:14:45.891Z,4.38
2024-04-24T14:17:12.495Z,4.60
2024-04-24T14:19:39.066Z,4.10
2024-04-24T14:22:05.542Z,4.20
2024-04-24T14:24:32.050Z,4.20
2024-04-24T14:26:58.605Z,3.70
2024-04-24T14:29:25.074Z,3.55
2024-04-24T14:31:51.614Z,3.80
2024-04-24T14:34:18.119Z,3.53
2024-04-24T14:36:44.632Z,3.67
2024-04-24T14:39:11.061Z,4.20
2024-04-24T14:41:37.586Z,4.00
2024-04-24T14:44:04.201Z,4.63
2024-04-24T14:46:30.672Z,3.65
2024-04-24T14:49:00.565Z,3.17
2024-04-24T14:51:29.122Z,2.70
2024-04-24T14:53:55.600Z,2.58
2024-04-24T14:56:22.074Z,2.05
2024-04-24T14:58:48.547Z,2.45
2024-04-24T15:01:15.148Z,3.05
2024-04-24T15:03:41.670Z,2.15
2024-04-24T15:06:08.135Z,2.10
2024-04-24T15:08:34.695Z,2.15
2024-04-24T15:11:02.840Z,1.83
2024-04-24T15:13:29.377Z,2.42
2024-04-24T15:15:55.895Z,1.70
2024-04-24T15:18:22.542Z,1.58
2024-04-24T15:20:49.141Z,1.98
2024-04-24T15:23:15.717Z,1.70
2024-04-24T15:25:42.228Z,1.75
2024-04-24T15:28:08.749Z,1.40
2024-04-24T15:30:35.285Z,1.55
2024-04-24T15:33:01.814Z,1.75
2024-04-24T15:35:28.506Z,1.35
2024-04-24T15:37:55.067Z,0.90
2024-04-24T15:40:21.562Z,1.02
2024-04-24T15:42:48.085Z,1.30
2024-04-24T15:45:14.587Z,1.50
2024-04-24T15:47:41.566Z,1.48
2024-04-24T15:50:08.189Z,1.33
2024-04-24T15:52:34.727Z,1.35
2024-04-24T15:55:01.227Z,1.33
2024-04-24T15:57:27.684Z,1.30
2024-04-24T15:59:54.172Z,1.40
2024-04-24T16:02:20.707Z,1.27
2024-04-24T16:04:47.213Z,1.40
2024-04-24T16:07:13.768Z,1.20
2024-04-24T16:09:40.237Z,1.60
2024-04-24T16:12:06.903Z,1.00
2024-04-24T16:14:33.455Z,1.08
2024-04-24T16:16:59.947Z,1.08
2024-04-24T16:19:26.551Z,1.00
2024-04-24T16:21:53.081Z,1.30
2024-04-24T16:24:19.538Z,1.17
2024-04-24T16:26:46.004Z,1.10
2024-04-24T16:29:12.526Z,1.30
2024-04-24T16:31:39.030Z,1.10
2024-04-24T16:34:05.603Z,0.90
2024-04-24T16:36:32.099Z,1.20
2024-04-24T16:38:58.598Z,1.10
2024-04-24T16:41:25.178Z,1.20
2024-04-24T16:43:53.155Z,0.93
2024-04-24T16:46:20.069Z,1.20
2024-04-24T16:48:46.729Z,1.42
2024-04-24T16:51:13.240Z,1.25
2024-04-24T16:53:39.765Z,1.10
2024-04-24T16:56:06.290Z,1.23
2024-04-24T16:58:32.814Z,1.02
2024-04-24T17:00:59.356Z,1.10
2024-04-24T17:03:25.831Z,1.35
2024-04-24T17:05:52.295Z,1.13
2024-04-24T17:08:18.826Z,0.95
2024-04-24T17:10:45.330Z,1.10
2024-04-24T17:13:11.871Z,1.27
2024-04-24T17:15:38.334Z,1.60
2024-04-24T17:18:05.175Z,1.52
2024-04-24T17:20:31.807Z,1.50
2024-04-24T17:22:58.378Z,2.22
2024-04-24T17:25:24.826Z,1.50
2024-04-24T17:27:51.300Z,1.30
2024-04-24T17:30:17.740Z,1.90
2024-04-24T17:32:44.248Z,1.80
2024-04-24T17:35:10.841Z,1.67
2024-04-24T17:37:37.331Z,1.30
2024-04-24T17:40:04.115Z,1.38
2024-04-24T17:42:30.622Z,1.30
2024-04-24T17:44:57.124Z,1.17
2024-04-24T17:47:24.019Z,1.17
2024-04-24T17:49:50.633Z,0.88
2024-04-24T17:52:17.148Z,1.30
2024-04-24T17:54:43.637Z,1.10
2024-04-24T17:57:10.114Z,1.20
2024-04-24T17:59:38.067Z,0.98
2024-04-24T18:02:06.183Z,1.20
2024-04-24T18:04:32.696Z,0.90
2024-04-24T18:06:59.231Z,1.10
2024-04-24T18:09:25.689Z,0.98
2024-04-24T18:11:52.268Z,1.73
2024-04-24T18:14:18.778Z,1.52
2024-04-24T18:16:45.289Z,1.40
2024-04-24T18:19:11.769Z,1.20
2024-04-24T18:21:41.206Z,1.17
2024-04-24T18:24:08.154Z,1.10
2024-04-24T18:26:34.796Z,1.40
2024-04-24T18:29:01.530Z,1.10
2024-04-24T18:31:28.057Z,1.23
2024-04-24T18:33:54.558Z,1.20
2024-04-24T18:36:20.989Z,1.20
2024-04-24T18:38:47.499Z,1.35
2024-04-24T18:41:14.196Z,1.42
2024-04-24T18:43:40.810Z,1.52
2024-04-24T18:46:07.311Z,2.63
2024-04-24T18:48:33.822Z,2.28
2024-04-24T18:51:00.468Z,2.10
2024-04-24T18:53:27.023Z,1.75
2024-04-24T18:55:53.581Z,3.08
2024-04-24T18:58:20.055Z,2.17
2024-04-24T19:00:46.604Z,1.88
2024-04-24T19:03:13.157Z,1.58
2024-04-24T19:05:39.852Z,1.88
2024-04-24T19:08:06.401Z,1.98
2024-04-24T19:10:32.853Z,3.22
2024-04-24T19:12:59.393Z,3.42
2024-04-24T19:15:25.881Z,4.25
2024-04-24T19:17:52.479Z,4.53
2024-04-24T19:20:19.193Z,4.50
2024-04-24T19:22:45.802Z,3.28
2024-04-24T19:25:12.324Z,2.80
2024-04-24T19:27:41.640Z,3.83
2024-04-24T19:30:09.157Z,3.58
2024-04-24T19:32:35.833Z,3.30
2024-04-24T19:35:02.546Z,3.13
2024-04-24T19:37:29.162Z,3.10
2024-04-24T19:39:55.793Z,3.50
2024-04-24T19:42:22.359Z,3.50
2024-04-24T19:44:48.859Z,3.38
2024-04-24T19:47:15.471Z,3.97
2024-04-24T19:49:41.960Z,4.65
2024-04-24T19:52:08.463Z,4.57
2024-04-24T19:54:34.950Z,4.00
2024-04-24T19:57:01.455Z,3.90
2024-04-24T19:59:27.999Z,4.30
2024-04-24T20:01:54.501Z,3.80
2024-04-24T20:04:20.990Z,3.05
2024-04-24T20:06:47.731Z,2.70
2024-04-24T20:09:14.196Z,2.95
2024-04-24T20:11:40.779Z,3.40
2024-04-24T20:14:07.327Z,3.10
2024-04-24T20:16:33.903Z,2.97
2024-04-24T20:19:00.711Z,3.10
2024-04-24T20:21:27.227Z,3.40
2024-04-24T20:23:53.796Z,3.88
2024-04-24T20:26:20.353Z,4.00
2024-04-24T20:28:48.226Z,4.25
2024-04-24T20:33:47.484Z,3.75
2024-04-24T20:36:14.867Z,3.28
2024-04-24T20:38:41.395Z,2.95
2024-04-24T20:41:08.280Z,2.80
2024-04-24T20:43:34.928Z,2.85
2024-04-24T20:46:05.262Z,2.53
2024-04-24T20:48:34.841Z,2.30
2024-04-24T20:51:01.962Z,2.92
2024-04-24T20:53:28.982Z,2.83
2024-04-24T20:55:55.697Z,2.25
2024-04-24T20:58:22.231Z,2.55
2024-04-24T21:00:48.790Z,2.75
2024-04-24T21:03:15.419Z,2.00
2024-04-24T21:05:41.973Z,2.60
2024-04-24T21:08:11.589Z,2.67
2024-04-24T21:10:38.788Z,2.25
2024-04-24T21:13:05.323Z,2.33
2024-04-24T21:15:35.788Z,2.30
2024-04-24T21:18:02.536Z,2.20
2024-04-24T21:20:29.247Z,1.85
2024-04-24T21:22:56.066Z,1.98
2024-04-24T21:25:22.518Z,2.22
2024-04-24T21:27:49.047Z,2.03
2024-04-24T21:30:15.540Z,2.10
2024-04-24T21:32:42.125Z,1.80
2024-04-24T21:35:08.716Z,2.10
2024-04-24T21:37:37.227Z,1.90
2024-04-24T21:40:04.171Z,2.40
2024-04-24T21:42:30.632Z,2.13
2024-04-24T21:44:57.147Z,2.08
2024-04-24T21:47:23.699Z,2.05
2024-04-24T21:49:50.212Z,1.98
2024-04-24T21:52:16.726Z,1.88
2024-04-24T21:54:43.273Z,1.80
2024-04-24T21:57:09.866Z,2.25
2024-04-24T21:59:36.468Z,2.08
2024-04-24T22:02:03.174Z,1.80
2024-04-24T22:04:30.023Z,2.10
2024-04-24T22:06:56.520Z,1.30
2024-04-24T22:09:23.001Z,1.80
2024-04-24T22:11:49.607Z,1.70
2024-04-24T22:14:16.223Z,1.98
2024-04-24T22:16:42.692Z,1.88
2024-04-24T22:19:09.300Z,1.60
2024-04-24T22:21:35.863Z,2.13
2024-04-24T22:24:02.322Z,2.10
2024-04-24T22:26:28.914Z,1.75
2024-04-24T22:28:55.345Z,1.85
2024-04-24T22:31:21.906Z,1.83
2024-04-24T22:33:48.393Z,1.80
2024-04-24T22:36:14.880Z,1.70
2024-04-24T22:38:41.381Z,2.05
2024-04-24T22:41:07.958Z,1.90
2024-04-24T22:43:34.422Z,1.90
2024-04-24T22:46:00.900Z,2.00
2024-04-24T22:48:27.474Z,1.80
2024-04-24T22:50:54.025Z,2.03
2024-04-24T22:53:20.552Z,1.83
2024-04-24T22:55:50.160Z,1.52
2024-04-24T22:58:16.936Z,1.90
2024-04-24T23:00:43.451Z,2.00
2024-04-24T23:03:10.025Z,1.98
2024-04-24T23:05:36.746Z,1.70
2024-04-24T23:08:03.438Z,1.90
2024-04-24T23:10:29.998Z,1.70
2024-04-24T23:12:56.525Z,1.90
2024-04-24T23:15:23.232Z,1.90
2024-04-24T23:17:49.824Z,1.55
2024-04-24T23:20:16.376Z,1.80
2024-04-24T23:22:42.907Z,1.90
2024-04-24T23:25:09.357Z,1.85
2024-04-24T23:27:35.878Z,1.88
2024-04-24T23:30:02.523Z,1.75
2024-04-24T23:32:29.137Z,1.77
2024-04-24T23:34:55.660Z,2.33
2024-04-24T23:37:22.105Z,1.90
2024-04-24T23:39:48.617Z,1.90
2024-04-24T23:42:15.062Z,1.88
2024-04-24T23:44:41.526Z,1.80
2024-04-24T23:47:08.171Z,2.00
2024-04-24T23:49:34.636Z,2.10
2024-04-24T23:52:01.122Z,2.10
2024-04-24T23:54:27.576Z,2.20
2024-04-24T23:56:54.088Z,2.08
2024-04-24T23:59:20.566Z,2.15
